createdAt,value
2023-03-10T00:00:05.320Z,625.00
2023-03-10T00:04:05.283Z,619.00
2023-03-10T00:08:05.225Z,618.00
2023-03-10T00:12:05.147Z,615.00
2023-03-10T00:16:05.156Z,611.00
2023-03-10T00:20:05.093Z,615.00
2023-03-10T00:24:05.200Z,608.00
2023-03-10T00:28:05.312Z,598.00
2023-03-10T00:32:05.385Z,601.00
2023-03-10T00:36:05.560Z,605.00
2023-03-10T00:40:05.575Z,606.00
2023-03-10T00:44:05.685Z,601.00
2023-03-10T00:48:05.741Z,599.00
2023-03-10T00:52:05.838Z,596.00
2023-03-10T00:56:05.946Z,595.00
2023-03-10T01:00:05.986Z,594.00
2023-03-10T01:04:06.063Z,594.00
2023-03-10T01:08:06.075Z,594.00
2023-03-10T01:12:06.147Z,593.00
2023-03-10T01:16:06.209Z,590.00
2023-03-10T01:20:06.198Z,591.00
2023-03-10T01:24:06.312Z,593.00
2023-03-10T01:28:06.362Z,591.00
2023-03-10T01:32:06.468Z,591.00
2023-03-10T01:36:06.559Z,585.00
2023-03-10T01:40:06.427Z,588.00
2023-03-10T01:44:06.481Z,582.00
2023-03-10T01:48:06.511Z,584.00
2023-03-10T01:52:06.608Z,581.00
2023-03-10T01:56:06.582Z,586.00
2023-03-10T02:00:06.619Z,582.00
2023-03-10T02:04:06.694Z,584.00
2023-03-10T02:08:06.739Z,579.00
2023-03-10T02:12:06.828Z,572.00
2023-03-10T02:16:06.880Z,580.00
2023-03-10T02:20:06.895Z,576.00
2023-03-10T02:24:06.967Z,577.00
2023-03-10T02:28:06.976Z,578.00
2023-03-10T02:32:07.011Z,572.00
2023-03-10T02:36:07.163Z,577.00
2023-03-10T02:40:07.101Z,576.00
2023-03-10T02:44:07.167Z,574.00
2023-03-10T02:48:07.247Z,574.00
2023-03-10T02:52:07.275Z,570.00
2023-03-10T02:56:07.285Z,569.00
2023-03-10T03:00:07.335Z,569.00
2023-03-10T03:04:07.398Z,573.00
2023-03-10T03:08:07.410Z,571.00
2023-03-10T03:12:07.434Z,580.00
2023-03-10T03:16:07.449Z,577.00
2023-03-10T03:20:07.506Z,579.00
2023-03-10T03:24:07.532Z,573.00
2023-03-10T03:28:07.571Z,568.00
2023-03-10T03:32:07.647Z,565.00
2023-03-10T03:36:07.670Z,564.00
2023-03-10T03:40:07.642Z,564.00
2023-03-10T03:44:07.674Z,564.00
2023-03-10T03:48:07.692Z,564.00
2023-03-10T03:52:07.718Z,571.00
2023-03-10T03:56:07.766Z,570.00
2023-03-10T04:00:07.805Z,570.00
2023-03-10T04:04:07.893Z,567.00
2023-03-10T04:08:07.911Z,564.00
2023-03-10T04:12:08.014Z,558.00
2023-03-10T04:16:08.119Z,558.00
2023-03-10T04:20:08.594Z,557.00
2023-03-10T04:24:08.162Z,560.00
2023-03-10T04:28:08.175Z,564.00
2023-03-10T04:32:08.241Z,558.00
2023-03-10T04:36:08.285Z,553.00
2023-03-10T04:40:08.329Z,557.00
2023-03-10T04:44:17.601Z,556.00
2023-03-10T04:48:09.369Z,567.00
2023-03-10T04:52:08.277Z,559.00
2023-03-10T04:56:08.282Z,558.00
2023-03-10T05:00:08.387Z,559.00
2023-03-10T05:04:08.248Z,559.00
2023-03-10T05:08:08.145Z,558.00
2023-03-10T05:12:08.205Z,550.00
2023-03-10T05:16:08.676Z,548.00
2023-03-10T05:20:08.368Z,547.00
2023-03-10T05:24:08.351Z,548.00
2023-03-10T05:28:08.366Z,548.00
2023-03-10T05:32:08.441Z,553.00
2023-03-10T05:36:08.572Z,548.00
2023-03-10T05:40:08.579Z,548.00
2023-03-10T05:44:08.558Z,547.00
2023-03-10T05:48:08.626Z,546.00
2023-03-10T05:52:09.055Z,545.00
2023-03-10T05:56:08.752Z,550.00
2023-03-10T06:00:08.750Z,549.00
2023-03-10T06:04:08.848Z,554.00
2023-03-10T06:08:08.860Z,556.00
2023-03-10T06:12:08.893Z,556.00
2023-03-10T06:16:08.980Z,554.00
2023-03-10T06:20:08.933Z,554.00
2023-03-10T06:24:08.966Z,561.00
2023-03-10T06:28:09.727Z,558.00
2023-03-10T06:32:09.044Z,556.00
2023-03-10T06:36:09.045Z,617.00
2023-03-10T06:40:09.282Z,658.00
2023-03-10T06:44:09.697Z,725.00
2023-03-10T06:48:09.274Z,836.00
2023-03-10T06:52:09.668Z,971.00
2023-03-10T06:56:09.701Z,1057.00
2023-03-10T07:00:09.715Z,1039.00
2023-03-10T07:04:09.769Z,1109.00
2023-03-10T07:08:09.939Z,1145.00
2023-03-10T07:12:10.079Z,1190.00
2023-03-10T07:16:10.151Z,1223.00
2023-03-10T07:20:10.258Z,1251.00
2023-03-10T07:24:10.308Z,1280.00
2023-03-10T07:28:10.415Z,1313.00
2023-03-10T07:32:10.617Z,1347.00
2023-03-10T07:36:10.539Z,1386.00
2023-03-10T07:40:10.565Z,1415.00
2023-03-10T07:44:10.653Z,1442.00
2023-03-10T07:48:11.184Z,1471.00
2023-03-10T07:52:11.225Z,1420.00
2023-03-10T07:56:11.119Z,1574.00
2023-03-10T08:00:11.329Z,704.00
2023-03-10T08:04:11.451Z,812.00
2023-03-10T08:08:11.416Z,1099.00
2023-03-10T08:12:11.453Z,1311.00
2023-03-10T08:16:11.675Z,1428.00
2023-03-10T08:20:11.629Z,1490.00
2023-03-10T08:24:11.732Z,1694.00
2023-03-10T08:28:11.943Z,1749.00
2023-03-10T08:32:12.163Z,1882.00
2023-03-10T08:36:12.362Z,1941.00
2023-03-10T08:40:12.713Z,2021.00
2023-03-10T08:44:12.805Z,2059.00
2023-03-10T08:48:12.799Z,2095.00
2023-03-10T08:52:12.934Z,2140.00
2023-03-10T08:56:13.174Z,2137.00
2023-03-10T09:00:16.064Z,2081.00
2023-03-10T09:04:13.305Z,1897.00
2023-03-10T09:08:13.264Z,1799.00
2023-03-10T09:12:13.221Z,1606.00
2023-03-10T09:16:13.212Z,1580.00
2023-03-10T09:20:13.125Z,1455.00
2023-03-10T09:24:13.118Z,1420.00
2023-03-10T09:28:13.096Z,1244.00
2023-03-10T09:32:13.362Z,1196.00
2023-03-10T09:36:13.296Z,1081.00
2023-03-10T09:40:12.959Z,1084.00
2023-03-10T09:44:13.236Z,1179.00
2023-03-10T09:48:12.882Z,1258.00
2023-03-10T09:52:14.046Z,1394.00
2023-03-10T09:56:12.851Z,731.00
2023-03-10T10:00:12.951Z,831.00
2023-03-10T10:04:13.364Z,1121.00
2023-03-10T10:08:13.187Z,1295.00
2023-03-10T10:12:13.309Z,1409.00
2023-03-10T10:16:31.638Z,1490.00
2023-03-10T10:20:14.468Z,1581.00
2023-03-10T10:24:13.398Z,1700.00
2023-03-10T10:28:13.444Z,1799.00
2023-03-10T10:32:13.577Z,1895.00
2023-03-10T10:36:13.766Z,2091.00
2023-03-10T10:40:14.264Z,2083.00
2023-03-10T10:44:14.006Z,2095.00
2023-03-10T10:48:14.239Z,2093.00
2023-03-10T10:52:14.244Z,2081.00
2023-03-10T10:56:14.726Z,2062.00
2023-03-10T11:00:14.281Z,2051.00
2023-03-10T11:04:17.354Z,2036.00
2023-03-10T11:08:14.313Z,2024.00
2023-03-10T11:12:14.301Z,2014.00
2023-03-10T11:16:14.346Z,2007.00
2023-03-10T11:20:14.149Z,2007.00
2023-03-10T11:24:14.146Z,1992.00
2023-03-10T11:28:14.304Z,1983.00
2023-03-10T11:32:14.080Z,1979.00
2023-03-10T11:36:14.341Z,1956.00
2023-03-10T11:40:14.284Z,936.00
2023-03-10T11:44:13.936Z,1100.00
2023-03-10T11:48:13.943Z,1247.00
2023-03-10T11:52:14.338Z,1472.00
2023-03-10T11:56:14.313Z,1490.00
2023-03-10T12:00:13.838Z,1512.00
2023-03-10T12:04:13.780Z,1550.00
2023-03-10T12:08:13.861Z,1536.00
2023-03-10T12:12:13.858Z,1531.00
2023-03-10T12:16:13.863Z,1557.00
2023-03-10T12:20:13.690Z,1636.00
2023-03-10T12:24:14.754Z,1700.00
2023-03-10T12:28:14.304Z,1736.00
2023-03-10T12:32:14.416Z,1747.00
2023-03-10T12:36:14.836Z,1764.00
2023-03-10T12:40:14.646Z,1573.00
2023-03-10T12:44:14.681Z,1232.00
2023-03-10T12:48:14.762Z,1259.00
2023-03-10T12:52:14.829Z,1259.00
2023-03-10T12:56:14.883Z,1403.00
2023-03-10T13:00:14.977Z,1196.00
2023-03-10T13:04:15.029Z,1086.00
2023-03-10T13:08:15.145Z,1147.00
2023-03-10T13:12:15.215Z,1201.00
2023-03-10T13:16:15.311Z,1212.00
2023-03-10T13:20:15.449Z,1217.00
2023-03-10T13:24:15.462Z,1214.00
2023-03-10T13:28:15.522Z,1222.00
2023-03-10T13:32:15.685Z,1244.00
2023-03-10T13:36:15.743Z,1283.00
2023-03-10T13:40:15.802Z,1275.00
2023-03-10T13:44:15.956Z,1280.00
2023-03-10T13:48:16.112Z,1215.00
2023-03-10T13:52:16.180Z,1229.00
2023-03-10T13:56:16.231Z,1222.00
2023-03-10T14:00:16.421Z,1226.00
2023-03-10T14:04:16.544Z,1233.00
2023-03-10T14:08:16.604Z,1239.00
2023-03-10T14:12:16.736Z,1234.00
2023-03-10T14:16:17.003Z,1241.00
2023-03-10T14:20:17.133Z,1216.00
2023-03-10T14:24:17.369Z,1227.00
2023-03-10T14:28:17.483Z,1102.00
2023-03-10T14:32:17.546Z,1142.00
2023-03-10T14:36:17.448Z,1143.00
2023-03-10T14:40:17.384Z,1161.00
2023-03-10T14:44:17.355Z,1167.00
2023-03-10T14:48:17.335Z,1164.00
2023-03-10T14:52:17.265Z,1158.00
2023-03-10T14:56:17.204Z,1145.00
2023-03-10T15:00:17.201Z,1111.00
2023-03-10T15:04:17.174Z,1050.00
2023-03-10T15:08:17.233Z,1054.00
2023-03-10T15:12:17.358Z,1033.00
2023-03-10T15:16:17.594Z,1058.00
2023-03-10T15:20:17.703Z,1033.00
2023-03-10T15:24:17.747Z,1029.00
2023-03-10T15:28:17.789Z,899.00
2023-03-10T15:32:17.885Z,910.00
2023-03-10T15:36:17.983Z,916.00
2023-03-10T15:40:17.936Z,949.00
2023-03-10T15:44:18.087Z,873.00
2023-03-10T15:48:18.158Z,799.00
2023-03-10T15:52:18.245Z,801.00
2023-03-10T15:56:18.418Z,776.00
2023-03-10T16:00:18.540Z,743.00
2023-03-10T16:04:18.609Z,728.00
2023-03-10T16:08:18.673Z,705.00
2023-03-10T16:12:18.757Z,686.00
2023-03-10T16:16:18.994Z,678.00
2023-03-10T16:20:19.024Z,660.00
2023-03-10T16:24:19.150Z,648.00
2023-03-10T16:28:19.377Z,640.00
2023-03-10T16:32:19.671Z,625.00
2023-03-10T16:36:19.738Z,611.00
2023-03-10T16:40:19.717Z,600.00
2023-03-10T16:44:19.616Z,588.00
2023-03-10T16:48:19.593Z,580.00
2023-03-10T16:52:19.594Z,573.00
2023-03-10T16:56:19.562Z,570.00
2023-03-10T17:00:19.481Z,560.00
2023-03-10T17:04:19.499Z,550.00
2023-03-10T17:08:19.425Z,545.00
2023-03-10T17:12:19.371Z,540.00
2023-03-10T17:16:19.373Z,535.00
2023-03-10T17:20:19.325Z,532.00
2023-03-10T17:24:19.284Z,527.00
2023-03-10T17:28:19.265Z,520.00
2023-03-10T17:32:19.204Z,515.00
2023-03-10T17:36:19.168Z,518.00
2023-03-10T17:40:19.153Z,516.00
2023-03-10T17:44:19.119Z,515.00
2023-03-10T17:48:19.067Z,514.00
2023-03-10T17:52:19.013Z,506.00
2023-03-10T17:56:19.061Z,501.00
2023-03-10T18:00:19.150Z,499.00
2023-03-10T18:04:19.348Z,500.00
2023-03-10T18:08:19.400Z,497.00
2023-03-10T18:12:19.552Z,495.00
2023-03-10T18:16:19.794Z,499.00
2023-03-10T18:20:19.830Z,498.00
2023-03-10T18:24:19.932Z,493.00
2023-03-10T18:28:20.013Z,491.00
2023-03-10T18:32:20.090Z,487.00
2023-03-10T18:36:20.154Z,488.00
2023-03-10T18:40:20.061Z,484.00
2023-03-10T18:44:20.177Z,487.00
2023-03-10T18:48:20.178Z,487.00
2023-03-10T18:52:20.211Z,482.00
2023-03-10T18:56:20.253Z,484.00
2023-03-10T19:00:20.264Z,485.00
2023-03-10T19:04:20.387Z,483.00
2023-03-10T19:08:20.395Z,485.00
2023-03-10T19:12:20.369Z,487.00
2023-03-10T19:16:20.454Z,486.00
2023-03-10T19:20:20.486Z,485.00
2023-03-10T19:24:20.544Z,487.00
2023-03-10T19:28:20.559Z,487.00
2023-03-10T19:32:20.696Z,487.00
2023-03-10T19:36:20.757Z,489.00
2023-03-10T19:40:20.766Z,489.00
2023-03-10T19:44:20.831Z,488.00
2023-03-10T19:48:20.894Z,486.00
2023-03-10T19:52:20.977Z,492.00
2023-03-10T19:56:21.047Z,484.00
2023-03-10T20:00:21.144Z,485.00
2023-03-10T20:04:21.205Z,484.00
2023-03-10T20:08:21.263Z,487.00
2023-03-10T20:12:21.293Z,493.00
2023-03-10T20:16:21.389Z,491.00
2023-03-10T20:20:21.472Z,489.00
2023-03-10T20:24:21.581Z,492.00
2023-03-10T20:32:40.940Z,471.00
2023-03-10T20:36:40.852Z,473.00
2023-03-10T20:40:40.785Z,468.00
2023-03-10T20:44:41.178Z,471.00
2023-03-10T20:48:40.759Z,469.00
2023-03-10T20:52:40.667Z,476.00
2023-03-10T20:56:40.673Z,480.00
2023-03-10T21:00:40.640Z,482.00
2023-03-10T21:04:40.721Z,480.00
2023-03-10T21:08:40.533Z,483.00
2023-03-10T21:12:40.529Z,478.00
2023-03-10T21:16:40.481Z,484.00
2023-03-10T21:20:40.469Z,484.00
2023-03-10T21:24:40.423Z,489.00
2023-03-10T21:28:40.546Z,488.00
2023-03-10T21:32:40.788Z,485.00
2023-03-10T21:36:40.820Z,484.00
2023-03-10T21:40:40.955Z,486.00
2023-03-10T21:44:41.092Z,484.00
2023-03-10T21:48:41.268Z,480.00
2023-03-10T21:52:41.506Z,478.00
2023-03-10T21:56:41.618Z,483.00
2023-03-10T22:00:41.818Z,483.00
2023-03-10T22:04:41.935Z,485.00
2023-03-10T22:08:42.108Z,486.00
2023-03-10T22:12:42.297Z,482.00
2023-03-10T22:16:42.482Z,485.00
2023-03-10T22:20:42.641Z,485.00
2023-03-10T22:24:42.943Z,482.00
2023-03-10T22:28:43.106Z,483.00
2023-03-10T22:32:43.231Z,484.00
2023-03-10T22:36:43.172Z,485.00
2023-03-10T22:40:43.204Z,483.00
2023-03-10T22:44:43.267Z,489.00
2023-03-10T22:48:43.250Z,483.00
2023-03-10T22:52:43.303Z,480.00
2023-03-10T22:56:43.407Z,480.00
2023-03-10T23:00:43.440Z,480.00
2023-03-10T23:04:43.504Z,476.00
2023-03-10T23:08:43.554Z,477.00
2023-03-10T23:12:43.628Z,471.00
2023-03-10T23:16:43.668Z,479.00
2023-03-10T23:20:43.688Z,480.00
2023-03-10T23:24:43.751Z,474.00
2023-03-10T23:28:43.795Z,473.00
2023-03-10T23:32:44.033Z,471.00
2023-03-10T23:36:43.887Z,475.00
2023-03-10T23:40:43.910Z,475.00
2023-03-10T23:44:44.000Z,475.00
2023-03-10T23:48:44.063Z,481.00
2023-03-10T23:52:44.161Z,488.00
2023-03-10T23:56:44.200Z,485.00
